Arhangel'Sk, Russia
Current Conditions -  °F | °C
As of 3:30 PM on Saturday 20 Dec 2014 (Local Time) from ULAA Reporting Station
Snow Showers Snow Showers  
Wind Chill: 22°   Ceiling: 800
Heat Index: 30°   Visibility: 6mi
Dew Point: 30°   Wind: 9mph
Humidity: 100%   Direction: 170°S
Pressure: 28.97"   Gusts: 16mph
Location:  64.5°N, 40.73°E
Report Text: ULAA 201230Z 17004G07MPS 120V200 9999 -SHSN OVC008CB M01/M01 Q0981 BECMG 2000 SHSN BKN005CB RMK QFE735/0980 SC037
Loading
Personal Weather Stations






























Interactive Weather Map New forecast layout! Learn more

10-Day Weather Forecast

Advertisements
Track Severe Weather on mobile